createdAt,value
2018-05-02T03:01:04.841Z,987.24
2018-05-02T03:03:05.854Z,987.28
2018-05-02T03:04:06.148Z,987.25
2018-05-02T03:05:06.362Z,987.28
2018-05-02T03:06:06.161Z,987.28
2018-05-02T03:08:07.055Z,987.33
2018-05-02T03:09:06.427Z,987.32
2018-05-02T03:10:05.974Z,987.29
2018-05-02T03:11:04.905Z,987.30
2018-05-02T03:12:04.801Z,987.24
2018-05-02T03:13:05.060Z,987.24
2018-05-02T03:14:05.227Z,987.16
2018-05-02T03:15:08.771Z,987.17
2018-05-02T03:16:05.821Z,987.25
2018-05-02T03:17:05.886Z,987.26
2018-05-02T03:18:06.135Z,987.29
2018-05-02T03:19:06.538Z,987.27
2018-05-02T03:20:10.459Z,987.30
2018-05-02T03:21:20.558Z,987.29
2018-05-02T03:22:09.919Z,987.24
2018-05-02T03:25:27.459Z,987.08
2018-05-02T03:26:27.946Z,987.06
2018-05-02T03:27:29.692Z,987.06
2018-05-02T03:28:28.312Z,987.09
2018-05-02T03:30:28.440Z,987.13
2018-05-02T03:31:29.783Z,987.11
2018-05-02T03:32:30.010Z,987.13
2018-05-02T03:33:29.943Z,987.12
2018-05-02T03:34:29.273Z,987.13
2018-05-02T03:35:29.626Z,987.15
2018-05-02T03:36:29.518Z,987.15
2018-05-02T03:37:28.832Z,987.17
2018-05-02T03:38:29.208Z,987.14
2018-05-02T03:39:29.793Z,987.16
2018-05-02T03:40:30.105Z,987.16
2018-05-02T03:41:28.970Z,987.16
2018-05-02T03:42:29.771Z,987.16
2018-05-02T03:43:30.531Z,987.13
2018-05-02T03:44:31.203Z,987.13
2018-05-02T03:45:29.453Z,987.08
2018-05-02T03:46:29.753Z,987.09
2018-05-02T03:47:29.573Z,987.10
2018-05-02T03:51:21.010Z,987.06
2018-05-02T03:52:20.661Z,987.05
2018-05-02T03:53:20.088Z,987.03
2018-05-02T03:54:20.449Z,987.05
2018-05-02T03:56:21.477Z,987.06
2018-05-02T03:57:20.699Z,987.07
2018-05-02T03:58:21.417Z,987.07
2018-05-02T03:59:21.568Z,987.11
2018-05-02T04:00:23.367Z,987.07
2018-05-02T04:01:22.500Z,987.11
2018-05-02T04:02:21.640Z,987.12
2018-05-02T04:03:22.157Z,987.08
2018-05-02T04:04:23.480Z,987.05
2018-05-02T04:05:23.507Z,987.06
2018-05-02T04:06:37.744Z,987.06
2018-05-02T04:13:22.067Z,987.06
2018-05-02T04:14:18.345Z,987.06
2018-05-02T04:17:03.349Z,987.04
2018-05-02T04:18:03.302Z,987.05
2018-05-02T04:19:03.381Z,987.08
2018-05-02T04:20:10.285Z,987.07
2018-05-02T04:21:04.771Z,987.10
2018-05-02T04:22:05.004Z,987.13
2018-05-02T04:23:15.029Z,987.15
2018-05-02T04:44:16.370Z,987.25
2018-05-02T04:59:23.018Z,987.35
2018-05-02T05:00:06.695Z,987.31
2018-05-02T05:01:07.170Z,987.40
2018-05-02T05:02:07.268Z,987.46
2018-05-02T05:03:07.579Z,987.36
2018-05-02T05:08:52.477Z,987.44
2018-05-02T05:09:45.504Z,987.38
2018-05-02T05:11:58.069Z,987.39
2018-05-02T05:12:47.071Z,987.43
2018-05-02T05:13:47.975Z,987.41
2018-05-02T05:14:48.207Z,987.38
2018-05-02T05:15:47.163Z,987.43
2018-05-02T05:18:29.006Z,987.41
2018-05-02T05:19:29.554Z,987.40
2018-05-02T05:20:29.886Z,987.38
2018-05-02T05:21:29.537Z,987.37
2018-05-02T05:22:29.772Z,987.37
2018-05-02T05:24:30.585Z,987.42
2018-05-02T05:25:30.523Z,987.45
2018-05-02T05:26:31.333Z,987.48
2018-05-02T05:27:30.835Z,987.44
2018-05-02T05:28:32.962Z,987.47
2018-05-02T05:29:39.279Z,987.44
2018-05-02T05:30:31.422Z,987.46
2018-05-02T05:31:31.965Z,987.42
2018-05-02T05:32:31.957Z,987.47
2018-05-02T05:33:30.741Z,987.51
2018-05-02T05:34:29.742Z,987.48
2018-05-02T05:35:38.580Z,987.48
2018-05-02T05:36:31.872Z,987.47
2018-05-02T05:37:30.319Z,987.46
2018-05-02T05:38:30.440Z,987.49
2018-05-02T05:39:30.573Z,987.42
2018-05-02T05:40:30.746Z,987.41
2018-05-02T05:41:30.924Z,987.43
2018-05-02T05:42:31.030Z,987.43
2018-05-02T05:43:31.233Z,987.39
2018-05-02T05:44:31.544Z,987.43
2018-05-02T05:45:31.541Z,987.36
2018-05-02T05:46:31.711Z,987.35
2018-05-02T05:47:31.934Z,987.35
2018-05-02T05:48:32.036Z,987.33
2018-05-02T05:49:32.257Z,987.36
2018-05-02T05:50:32.425Z,987.35
2018-05-02T05:51:32.580Z,987.37
2018-05-02T05:52:32.705Z,987.41
2018-05-02T05:53:32.888Z,987.44
2018-05-02T05:54:33.037Z,987.43
2018-05-02T05:55:33.632Z,987.42
2018-05-02T05:56:33.347Z,987.45
2018-05-02T05:57:33.556Z,987.39
2018-05-02T05:58:33.699Z,987.46
2018-05-02T05:59:33.922Z,987.50
2018-05-02T06:00:34.007Z,987.47
2018-05-02T06:01:34.133Z,987.48
2018-05-02T06:02:36.053Z,987.54
2018-05-02T06:03:34.518Z,987.47
2018-05-02T06:04:34.757Z,987.47
2018-05-02T06:05:34.885Z,987.50
2018-05-02T06:06:35.049Z,987.53
2018-05-02T06:07:35.235Z,987.53
2018-05-02T06:08:35.409Z,987.53
2018-05-02T06:09:35.576Z,987.52
2018-05-02T06:10:35.760Z,987.54
2018-05-02T06:11:35.796Z,987.56
2018-05-02T06:12:36.011Z,987.54
2018-05-02T06:13:36.146Z,987.52
2018-05-02T06:14:36.345Z,987.53
2018-05-02T06:15:36.493Z,987.57
2018-05-02T06:16:37.550Z,987.51
2018-05-02T06:17:36.854Z,987.54
2018-05-02T06:18:36.996Z,987.55
2018-05-02T06:19:37.109Z,987.60
2018-05-02T06:20:37.333Z,987.56
2018-05-02T06:21:51.262Z,987.56
2018-05-02T06:22:40.033Z,987.62
2018-05-02T06:23:40.859Z,987.55
2018-05-02T06:24:41.030Z,987.58
2018-05-02T06:25:39.996Z,987.51
2018-05-02T06:26:39.171Z,987.54
2018-05-02T06:27:38.529Z,987.54
2018-05-02T06:28:38.653Z,987.54
2018-05-02T06:29:38.792Z,987.56
2018-05-02T06:30:39.023Z,987.54
2018-05-02T06:31:39.108Z,987.49
2018-05-02T06:32:39.289Z,987.47
2018-05-02T06:33:39.466Z,987.47
2018-05-02T06:34:39.576Z,987.47
2018-05-02T06:35:39.782Z,987.53
2018-05-02T06:36:39.905Z,987.51
2018-05-02T06:37:40.176Z,987.52
2018-05-02T06:38:40.267Z,987.51
2018-05-02T06:39:40.464Z,987.51
2018-05-02T06:40:40.607Z,987.48
2018-05-02T06:41:40.685Z,987.51
2018-05-02T06:42:40.918Z,987.52
2018-05-02T06:43:41.078Z,987.52
2018-05-02T06:44:41.235Z,987.49
2018-05-02T06:45:41.340Z,987.48
2018-05-02T06:46:41.566Z,987.51
2018-05-02T06:47:41.762Z,987.51
2018-05-02T06:48:41.954Z,987.52
2018-05-02T06:49:42.147Z,987.53
2018-05-02T06:50:42.203Z,987.54
2018-05-02T06:51:42.398Z,987.53
2018-05-02T06:52:42.605Z,987.56
2018-05-02T06:53:42.778Z,987.52
2018-05-02T06:54:43.015Z,987.52
2018-05-02T06:55:43.033Z,987.47
2018-05-02T06:56:43.246Z,987.46
2018-05-02T06:57:43.498Z,987.51
2018-05-02T06:58:43.583Z,987.49
2018-05-02T06:59:43.743Z,987.45
2018-05-02T07:00:43.956Z,987.47
2018-05-02T07:01:44.098Z,987.45
2018-05-02T07:02:44.254Z,987.45
2018-05-02T07:03:44.381Z,987.49
2018-05-02T07:04:44.508Z,987.50
2018-05-02T07:05:44.706Z,987.48
2018-05-02T07:06:44.822Z,987.50
2018-05-02T07:07:45.042Z,987.49
2018-05-02T07:08:45.278Z,987.49
2018-05-02T07:09:45.336Z,987.51
2018-05-02T07:10:45.505Z,987.48
2018-05-02T07:11:45.692Z,987.47
2018-05-02T07:12:45.910Z,987.48
2018-05-02T07:13:46.050Z,987.50
2018-05-02T07:14:46.235Z,987.51
2018-05-02T07:15:46.417Z,987.49
2018-05-02T07:16:46.532Z,987.51
2018-05-02T07:17:46.688Z,987.52
2018-05-02T07:18:46.892Z,987.49
2018-05-02T07:19:47.047Z,987.52
2018-05-02T07:20:47.235Z,987.48
2018-05-02T07:21:47.383Z,987.46
2018-05-02T07:22:47.553Z,987.47
2018-05-02T07:23:47.666Z,987.44
2018-05-02T07:24:48.797Z,987.43
2018-05-02T07:25:48.024Z,987.43
2018-05-02T07:26:48.196Z,987.41
2018-05-02T07:27:48.410Z,987.39
2018-05-02T07:28:48.553Z,987.38
2018-05-02T07:29:48.750Z,987.35
2018-05-02T07:30:48.867Z,987.39
2018-05-02T07:31:49.029Z,987.41
2018-05-02T07:32:49.351Z,987.36
2018-05-02T07:33:49.375Z,987.33
2018-05-02T07:34:49.555Z,987.31
2018-05-02T07:35:49.651Z,987.34
2018-05-02T07:36:49.890Z,987.36
2018-05-02T07:37:50.000Z,987.36
2018-05-02T07:38:50.178Z,987.40
2018-05-02T07:39:50.337Z,987.38
2018-05-02T07:40:50.528Z,987.42
2018-05-02T07:41:50.730Z,987.44
2018-05-02T07:42:50.885Z,987.42
2018-05-02T07:43:51.007Z,987.39
2018-05-02T07:44:51.124Z,987.33
2018-05-02T07:45:51.358Z,987.30
2018-05-02T07:46:51.471Z,987.32
2018-05-02T07:47:51.608Z,987.31
2018-05-02T07:48:51.827Z,987.30
2018-05-02T07:49:51.940Z,987.26
2018-05-02T07:50:52.085Z,987.28
2018-05-02T07:51:52.286Z,987.30
2018-05-02T07:52:52.440Z,987.27
2018-05-02T07:53:52.584Z,987.26
2018-05-02T07:54:52.825Z,987.21
2018-05-02T07:55:52.948Z,987.24
2018-05-02T07:56:53.115Z,987.27
2018-05-02T07:57:53.223Z,987.31
2018-05-02T07:58:53.437Z,987.33
2018-05-02T07:59:53.596Z,987.32
2018-05-02T08:00:53.788Z,987.36
2018-05-02T08:01:53.925Z,987.38
2018-05-02T08:02:54.081Z,987.37
2018-05-02T08:03:54.240Z,987.36
2018-05-02T08:04:54.477Z,987.36
2018-05-02T08:05:54.627Z,987.36
2018-05-02T08:06:54.802Z,987.36
2018-05-02T08:07:55.019Z,987.34
2018-05-02T08:08:55.069Z,987.36
2018-05-02T08:09:55.262Z,987.34
2018-05-02T08:10:55.443Z,987.37
2018-05-02T08:11:55.566Z,987.33
2018-05-02T08:12:55.802Z,987.31
2018-05-02T08:13:55.905Z,987.33
2018-05-02T08:14:56.087Z,987.33
2018-05-02T08:15:56.295Z,987.32
2018-05-02T08:16:56.439Z,987.31
2018-05-02T08:17:56.597Z,987.30
2018-05-02T08:18:56.742Z,987.29
2018-05-02T08:19:56.917Z,987.30
2018-05-02T08:20:57.042Z,987.32
2018-05-02T08:21:57.347Z,987.28
2018-05-02T08:22:57.354Z,987.25
2018-05-02T08:23:57.569Z,987.22
2018-05-02T08:24:57.743Z,987.21
2018-05-02T08:25:57.904Z,987.23
2018-05-02T08:26:58.071Z,987.20
2018-05-02T08:27:58.161Z,987.20
2018-05-02T08:28:58.381Z,987.16
2018-05-02T08:29:58.496Z,987.15
2018-05-02T08:30:58.654Z,987.16
2018-05-02T08:31:58.912Z,987.14
2018-05-02T08:32:59.129Z,987.14
2018-05-02T08:33:59.209Z,987.10
2018-05-02T08:34:59.347Z,987.12
2018-05-02T08:35:59.559Z,987.10
2018-05-02T08:36:59.732Z,987.07
2018-05-02T08:37:59.829Z,987.10
2018-05-02T08:39:00.025Z,987.03
2018-05-02T08:40:00.172Z,987.07
2018-05-02T08:41:00.311Z,987.03
2018-05-02T08:42:00.490Z,987.04
2018-05-02T08:43:00.694Z,987.01
2018-05-02T08:44:00.824Z,987.03
2018-05-02T08:45:01.035Z,987.08
2018-05-02T08:46:01.187Z,987.02
2018-05-02T08:47:01.349Z,987.01
2018-05-02T08:48:01.433Z,987.00
2018-05-02T08:49:01.668Z,986.99
2018-05-02T08:50:01.794Z,987.01
2018-05-02T08:51:02.009Z,986.99
2018-05-02T08:52:02.163Z,987.02
2018-05-02T08:53:02.315Z,986.97
2018-05-02T08:54:02.526Z,986.96
2018-05-02T08:55:02.652Z,986.92
2018-05-02T08:56:02.816Z,986.90
2018-05-02T08:57:02.969Z,986.96
2018-05-02T08:58:03.141Z,986.90
2018-05-02T08:59:03.236Z,986.94
2018-05-02T09:00:03.446Z,986.93
2018-05-02T09:01:03.573Z,986.89
2018-05-02T09:02:03.779Z,986.92
2018-05-02T09:03:04.008Z,986.92
2018-05-02T09:04:04.131Z,986.90
2018-05-02T09:05:04.260Z,986.89
2018-05-02T09:06:04.432Z,986.86
2018-05-02T09:07:04.603Z,986.86
2018-05-02T09:08:04.779Z,986.83
2018-05-02T09:09:04.941Z,986.86
2018-05-02T09:10:05.109Z,986.87
2018-05-02T09:11:05.299Z,986.85
2018-05-02T09:12:05.478Z,986.83
2018-05-02T09:13:05.577Z,986.82
2018-05-02T09:14:05.809Z,986.78
2018-05-02T09:15:05.945Z,986.74
2018-05-02T09:16:06.146Z,986.72
2018-05-02T09:17:06.342Z,986.70
2018-05-02T09:18:06.453Z,986.72
2018-05-02T09:19:06.607Z,986.68
2018-05-02T09:20:06.748Z,986.63
2018-05-02T09:21:06.962Z,986.61
2018-05-02T09:22:07.095Z,986.63
2018-05-02T09:23:07.199Z,986.61
2018-05-02T09:24:07.430Z,986.62
2018-05-02T09:25:07.612Z,986.58
2018-05-02T09:26:07.813Z,986.67
2018-05-02T09:27:07.915Z,986.67
2018-05-02T09:28:08.093Z,986.67
2018-05-02T09:29:08.258Z,986.64
2018-05-02T09:30:08.385Z,986.68
2018-05-02T09:31:08.576Z,986.64
2018-05-02T09:32:08.826Z,986.61
2018-05-02T09:33:08.938Z,986.60
2018-05-02T09:34:09.085Z,986.58
2018-05-02T09:35:09.285Z,986.57
2018-05-02T09:36:09.455Z,986.58
2018-05-02T09:37:09.584Z,986.60
2018-05-02T09:38:09.857Z,986.57
2018-05-02T09:39:09.975Z,986.57
2018-05-02T09:40:10.110Z,986.57
2018-05-02T09:41:10.322Z,986.52
2018-05-02T09:42:10.533Z,986.56
2018-05-02T09:43:10.656Z,986.53
2018-05-02T09:44:10.928Z,986.56
2018-05-02T09:45:10.981Z,986.67
2018-05-02T09:46:11.158Z,986.65
2018-05-02T09:47:11.329Z,986.54
2018-05-02T09:48:11.510Z,986.51
2018-05-02T09:49:11.675Z,986.56
2018-05-02T09:50:11.859Z,986.57
2018-05-02T09:51:12.044Z,986.45
2018-05-02T09:52:12.212Z,986.44
2018-05-02T09:53:12.412Z,986.45
2018-05-02T09:54:12.522Z,986.41
2018-05-02T09:55:12.722Z,986.43
2018-05-02T09:56:12.887Z,986.43
2018-05-02T09:57:13.019Z,986.44
2018-05-02T09:58:13.332Z,986.43
2018-05-02T09:59:13.356Z,986.42
2018-05-02T10:00:13.578Z,986.46
2018-05-02T10:01:13.669Z,986.38
2018-05-02T10:02:13.805Z,986.35
2018-05-02T10:03:14.013Z,986.34
2018-05-02T10:04:14.208Z,986.35
2018-05-02T10:05:14.434Z,986.35
2018-05-02T10:06:14.517Z,986.34
2018-05-02T10:07:14.765Z,986.34
2018-05-02T10:08:14.952Z,986.34
2018-05-02T10:09:15.075Z,986.33
2018-05-02T10:10:15.174Z,986.32
2018-05-02T10:11:15.393Z,986.32
2018-05-02T10:12:15.537Z,986.29
2018-05-02T10:13:15.725Z,986.35
2018-05-02T10:14:15.881Z,986.29
2018-05-02T10:15:16.077Z,986.31
2018-05-02T10:16:16.247Z,986.31
2018-05-02T10:17:16.403Z,986.30
2018-05-02T10:18:16.497Z,986.25
2018-05-02T10:19:16.694Z,986.25
2018-05-02T10:20:16.857Z,986.25
2018-05-02T10:21:17.054Z,986.23
2018-05-02T10:22:17.168Z,986.21
2018-05-02T10:23:17.365Z,986.17
2018-05-02T10:24:17.513Z,986.19
2018-05-02T10:25:17.669Z,986.16
2018-05-02T10:26:17.902Z,986.18
2018-05-02T10:27:18.076Z,986.17
2018-05-02T10:28:18.179Z,986.17
2018-05-02T10:29:18.320Z,986.15
2018-05-02T10:30:18.513Z,986.17
2018-05-02T10:31:18.709Z,986.18
2018-05-02T10:32:18.919Z,986.14
2018-05-02T10:33:19.064Z,986.18
2018-05-02T10:34:19.158Z,986.14
2018-05-02T10:35:19.639Z,986.21
2018-05-02T10:36:19.847Z,986.18
2018-05-02T10:37:20.190Z,986.09
2018-05-02T10:38:20.571Z,986.09
2018-05-02T10:39:20.507Z,986.03
2018-05-02T10:40:20.853Z,986.04
2018-05-02T10:41:20.751Z,986.05
2018-05-02T10:42:20.762Z,986.08
2018-05-02T10:43:21.493Z,986.08
2018-05-02T10:44:24.562Z,986.06
2018-05-02T10:45:22.055Z,986.02
2018-05-02T10:50:35.583Z,985.92
2018-05-02T10:51:34.583Z,985.88
2018-05-02T10:52:34.549Z,985.91
2018-05-02T10:53:34.736Z,985.91
2018-05-02T10:54:34.835Z,985.86
2018-05-02T10:55:35.050Z,985.86
2018-05-02T10:56:35.187Z,985.81
2018-05-02T10:57:35.356Z,985.81
2018-05-02T10:58:35.535Z,985.81
2018-05-02T10:59:35.765Z,985.76
2018-05-02T11:00:35.882Z,985.76
2018-05-02T11:01:36.113Z,985.77
2018-05-02T11:02:36.252Z,985.73
2018-05-02T11:03:36.454Z,985.72
2018-05-02T11:04:36.584Z,985.73
2018-05-02T11:05:36.759Z,985.75
2018-05-02T11:06:36.942Z,985.76
2018-05-02T11:07:37.026Z,985.70
2018-05-02T11:08:37.252Z,985.75
2018-05-02T11:09:37.421Z,985.75
2018-05-02T11:10:37.605Z,985.71
2018-05-02T11:11:37.740Z,985.74
2018-05-02T11:12:37.936Z,985.74
2018-05-02T11:13:38.082Z,985.73
2018-05-02T11:14:38.228Z,985.74
2018-05-02T11:15:38.408Z,985.74
2018-05-02T11:16:38.559Z,985.71
2018-05-02T11:17:38.705Z,985.69
2018-05-02T11:18:38.900Z,985.70
2018-05-02T11:19:39.121Z,985.71
2018-05-02T11:20:39.227Z,985.70
2018-05-02T11:21:39.421Z,985.66
2018-05-02T11:22:39.566Z,985.65
2018-05-02T11:23:39.774Z,985.66
2018-05-02T11:24:39.963Z,985.64
2018-05-02T11:25:40.061Z,985.64
2018-05-02T11:26:40.326Z,985.64
2018-05-02T11:27:40.362Z,985.64
2018-05-02T11:28:40.548Z,985.59
2018-05-02T11:29:40.712Z,985.58
2018-05-02T11:30:40.913Z,985.59
2018-05-02T11:31:41.104Z,985.57
2018-05-02T11:32:41.199Z,985.56
2018-05-02T11:33:41.419Z,985.55
2018-05-02T11:34:41.653Z,985.51
2018-05-02T11:35:41.716Z,985.54
2018-05-02T11:36:41.865Z,985.52
2018-05-02T11:37:42.126Z,985.54
2018-05-02T11:38:42.309Z,985.52
2018-05-02T11:39:42.444Z,985.51
2018-05-02T11:40:42.641Z,985.52
2018-05-02T11:41:42.782Z,985.56
2018-05-02T11:42:42.944Z,985.53
2018-05-02T11:43:43.142Z,985.51
2018-05-02T11:44:43.292Z,985.53
2018-05-02T11:45:43.488Z,985.53
2018-05-02T11:46:43.631Z,985.52
2018-05-02T11:47:43.846Z,985.52
2018-05-02T11:48:43.972Z,985.52
2018-05-02T11:49:44.099Z,985.50
2018-05-02T11:50:44.322Z,985.48
2018-05-02T11:51:44.448Z,985.47
2018-05-02T11:52:44.647Z,985.46
2018-05-02T11:53:44.706Z,985.46
2018-05-02T11:54:44.895Z,985.43
2018-05-02T11:55:45.139Z,985.45
2018-05-02T11:56:45.264Z,985.41
2018-05-02T11:57:45.489Z,985.39
2018-05-02T11:58:45.575Z,985.41
2018-05-02T11:59:45.764Z,985.42
2018-05-02T12:00:45.916Z,985.35
2018-05-02T12:01:46.135Z,985.38
2018-05-02T12:02:46.288Z,985.42
2018-05-02T12:03:46.450Z,985.40
2018-05-02T12:04:46.643Z,985.41
2018-05-02T12:05:46.797Z,985.42
2018-05-02T12:06:46.968Z,985.37
2018-05-02T12:07:47.113Z,985.39
2018-05-02T12:08:47.326Z,985.39
2018-05-02T12:09:47.505Z,985.36
2018-05-02T12:10:47.640Z,985.40
2018-05-02T12:11:47.764Z,985.40
2018-05-02T12:12:47.999Z,985.38
2018-05-02T12:13:48.181Z,985.30
2018-05-02T12:14:48.307Z,985.36
2018-05-02T12:15:48.895Z,985.29
2018-05-02T12:16:48.738Z,985.30
2018-05-02T12:17:48.900Z,985.24
2018-05-02T12:18:49.048Z,985.30
2018-05-02T12:19:49.309Z,985.27
2018-05-02T12:20:49.362Z,985.29
2018-05-02T12:21:49.613Z,985.23
2018-05-02T12:22:49.684Z,985.25
2018-05-02T12:23:49.897Z,985.28
2018-05-02T12:24:50.006Z,985.27
2018-05-02T12:25:50.224Z,985.25
2018-05-02T12:26:50.401Z,985.18
2018-05-02T12:27:50.588Z,985.18
2018-05-02T12:28:50.709Z,985.15
2018-05-02T12:29:50.872Z,985.16
2018-05-02T12:30:51.066Z,985.15
2018-05-02T12:31:51.185Z,985.14
2018-05-02T12:32:51.323Z,985.16
2018-05-02T12:33:51.562Z,985.17
2018-05-02T12:34:51.701Z,985.19
2018-05-02T12:35:51.841Z,985.15
2018-05-02T12:36:52.027Z,985.14
2018-05-02T12:37:52.205Z,985.19
2018-05-02T12:38:52.425Z,985.15
2018-05-02T12:39:52.584Z,985.13
2018-05-02T12:40:52.778Z,985.16
2018-05-02T12:41:52.917Z,985.15
2018-05-02T12:42:53.057Z,985.17
2018-05-02T12:43:53.190Z,985.16
2018-05-02T12:44:53.334Z,985.15
2018-05-02T12:45:53.593Z,985.11
2018-05-02T12:46:53.725Z,985.11
2018-05-02T12:47:53.852Z,985.11
2018-05-02T12:48:54.125Z,985.08
2018-05-02T12:49:54.229Z,985.07
2018-05-02T12:50:54.403Z,985.02
2018-05-02T12:51:54.550Z,985.01
2018-05-02T12:52:54.713Z,984.92
2018-05-02T12:53:54.901Z,984.94
2018-05-02T12:54:55.079Z,984.94
2018-05-02T12:55:55.247Z,984.92
2018-05-02T12:56:55.392Z,984.90
2018-05-02T12:57:55.571Z,984.84
2018-05-02T12:58:55.777Z,984.89
2018-05-02T12:59:55.909Z,984.84
2018-05-02T13:00:56.075Z,984.83
2018-05-02T13:01:56.201Z,984.83
2018-05-02T13:02:56.368Z,984.84
2018-05-02T13:03:56.569Z,984.81
2018-05-02T13:04:56.762Z,984.78
2018-05-02T13:05:56.904Z,984.79
2018-05-02T13:06:57.068Z,984.82
2018-05-02T13:07:57.238Z,984.78
2018-05-02T13:08:57.430Z,984.77
2018-05-02T13:09:57.659Z,984.77
2018-05-02T13:10:57.746Z,984.73
2018-05-02T13:11:57.924Z,984.73
2018-05-02T13:12:58.121Z,984.68
2018-05-02T13:13:58.316Z,984.65
2018-05-02T13:14:58.428Z,984.59
2018-05-02T13:15:58.628Z,984.55
2018-05-02T13:16:58.746Z,984.53
2018-05-02T13:17:58.974Z,984.50
2018-05-02T13:18:59.064Z,984.52
2018-05-02T13:19:59.271Z,984.50
2018-05-02T13:20:59.461Z,984.48
2018-05-02T13:21:59.532Z,984.53
2018-05-02T13:22:59.769Z,984.44
2018-05-02T13:23:59.888Z,984.47
2018-05-02T13:25:00.050Z,984.46
2018-05-02T13:26:00.253Z,984.44
2018-05-02T13:27:00.425Z,984.40
2018-05-02T13:28:00.600Z,984.43
2018-05-02T13:29:00.762Z,984.42
2018-05-02T13:30:00.912Z,984.37
2018-05-02T13:31:01.027Z,984.36
2018-05-02T13:32:01.219Z,984.33
2018-05-02T13:33:01.435Z,984.29
2018-05-02T13:34:01.508Z,984.30
2018-05-02T13:35:01.761Z,984.29
2018-05-02T13:36:01.885Z,984.26
2018-05-02T13:37:02.158Z,984.24
2018-05-02T13:38:02.268Z,984.25
2018-05-02T13:39:02.463Z,984.26
2018-05-02T13:40:02.624Z,984.24
2018-05-02T13:41:02.799Z,984.24
2018-05-02T13:42:03.012Z,984.15
2018-05-02T13:43:03.180Z,984.24
2018-05-02T13:44:03.323Z,984.23
2018-05-02T13:45:03.554Z,984.27
2018-05-02T13:46:03.758Z,984.25
2018-05-02T13:47:03.883Z,984.31
2018-05-02T13:48:04.061Z,984.31
2018-05-02T13:49:04.283Z,984.28
2018-05-02T13:50:04.429Z,984.28
2018-05-02T13:51:04.614Z,984.27
2018-05-02T13:52:04.798Z,984.23
2018-05-02T13:53:04.919Z,984.24
2018-05-02T13:54:05.105Z,984.23
2018-05-02T13:55:05.272Z,984.20
2018-05-02T13:56:05.424Z,984.18
2018-05-02T13:57:05.538Z,984.17
2018-05-02T13:58:05.782Z,984.17
2018-05-02T13:59:05.863Z,984.11
2018-05-02T14:00:06.136Z,984.12
2018-05-02T14:01:06.277Z,984.09
2018-05-02T14:02:06.461Z,984.07
2018-05-02T14:03:06.637Z,984.08
2018-05-02T14:04:06.808Z,984.07
2018-05-02T14:05:06.989Z,984.07
2018-05-02T14:06:07.105Z,984.06
2018-05-02T14:07:07.309Z,984.10
2018-05-02T14:08:07.415Z,984.04
2018-05-02T14:09:07.620Z,984.07
2018-05-02T14:10:07.789Z,984.03
2018-05-02T14:11:07.961Z,984.04
2018-05-02T14:12:08.178Z,984.02
2018-05-02T14:13:08.320Z,984.04
2018-05-02T14:14:08.519Z,984.06
2018-05-02T14:15:08.740Z,984.03
2018-05-02T14:16:08.821Z,983.97
2018-05-02T14:17:09.061Z,983.93
2018-05-02T14:18:09.216Z,983.93
2018-05-02T14:19:09.405Z,983.87
2018-05-02T14:20:09.515Z,983.89
2018-05-02T14:21:09.708Z,983.90
2018-05-02T14:22:09.855Z,983.87
2018-05-02T14:23:10.061Z,983.87
2018-05-02T14:24:10.203Z,983.88
2018-05-02T14:25:10.432Z,983.82
2018-05-02T14:26:10.534Z,983.84
2018-05-02T14:27:10.765Z,983.88
2018-05-02T14:28:10.967Z,983.90
2018-05-02T14:29:10.993Z,983.92
2018-05-02T14:30:11.217Z,983.93
2018-05-02T14:31:11.393Z,983.92
2018-05-02T14:32:11.560Z,983.93
2018-05-02T14:33:11.676Z,983.94
2018-05-02T14:34:11.793Z,983.91
2018-05-02T14:35:11.992Z,983.90
2018-05-02T14:36:12.142Z,983.96
2018-05-02T14:37:12.404Z,983.95
2018-05-02T14:38:12.581Z,983.97
2018-05-02T14:39:12.753Z,983.94
2018-05-02T14:40:12.930Z,984.02
2018-05-02T14:41:13.073Z,983.98
2018-05-02T14:42:13.244Z,983.99
2018-05-02T14:43:13.418Z,983.97
2018-05-02T14:44:13.587Z,984.05
2018-05-02T14:45:13.750Z,984.01
2018-05-02T14:46:13.955Z,984.01
2018-05-02T14:47:14.072Z,984.03
2018-05-02T14:48:14.234Z,983.98
2018-05-02T14:49:14.436Z,984.00
2018-05-02T14:50:14.562Z,983.97
2018-05-02T14:51:14.725Z,983.97
2018-05-02T14:52:15.004Z,983.95
2018-05-02T14:53:15.055Z,983.98
2018-05-02T14:54:15.223Z,983.95
2018-05-02T14:55:15.404Z,983.99
2018-05-02T14:56:15.576Z,983.97
2018-05-02T14:57:15.725Z,983.99
2018-05-02T14:58:15.987Z,983.97
2018-05-02T14:59:16.190Z,983.99
2018-05-02T15:00:16.215Z,984.00
2018-05-02T15:01:16.496Z,983.99
2018-05-02T15:02:16.635Z,984.03
2018-05-02T15:03:16.766Z,984.03
2018-05-02T15:04:16.938Z,984.08
2018-05-02T15:05:17.127Z,984.06
2018-05-02T15:06:17.280Z,984.08
2018-05-02T15:07:17.445Z,984.10
2018-05-02T15:08:17.775Z,984.13
2018-05-02T15:09:17.839Z,984.10
2018-05-02T15:10:17.956Z,984.05
2018-05-02T15:11:18.139Z,984.05
2018-05-02T15:12:18.260Z,984.05
2018-05-02T15:13:18.480Z,984.02
2018-05-02T15:14:18.562Z,984.02
2018-05-02T15:15:18.779Z,983.98
2018-05-02T15:16:18.966Z,983.99
2018-05-02T15:17:19.272Z,983.91
2018-05-02T15:18:19.308Z,983.90
2018-05-02T15:19:19.574Z,983.92
2018-05-02T15:20:19.751Z,983.93
2018-05-02T15:21:19.916Z,983.93
2018-05-02T15:22:20.075Z,983.92
2018-05-02T15:23:20.257Z,983.94
2018-05-02T15:24:20.400Z,983.95
2018-05-02T15:25:20.511Z,983.97
2018-05-02T15:26:20.736Z,983.96
2018-05-02T15:27:20.860Z,983.97
2018-05-02T15:28:21.042Z,983.99
2018-05-02T15:29:21.248Z,983.92
2018-05-02T15:30:21.422Z,983.91
2018-05-02T15:31:21.642Z,983.88
2018-05-02T15:32:21.814Z,983.86
2018-05-02T15:33:21.984Z,983.82
2018-05-02T15:34:22.148Z,983.75
2018-05-02T15:35:22.328Z,983.80
2018-05-02T15:36:25.073Z,983.75
2018-05-02T15:37:22.659Z,983.73
2018-05-02T15:38:22.814Z,983.75
2018-05-02T15:39:23.069Z,983.78
2018-05-02T15:40:23.217Z,983.81
2018-05-02T15:41:23.338Z,983.85
2018-05-02T15:42:23.519Z,983.86
2018-05-02T15:43:23.658Z,983.85
2018-05-02T15:44:23.802Z,983.85
2018-05-02T15:45:24.106Z,983.87
2018-05-02T15:46:24.200Z,983.81
2018-05-02T15:47:24.389Z,983.83
2018-05-02T15:48:24.527Z,983.83
2018-05-02T15:49:24.825Z,983.86
2018-05-02T15:50:24.823Z,983.83
2018-05-02T15:51:25.017Z,983.86
2018-05-02T15:52:25.153Z,983.87
2018-05-02T15:53:25.329Z,983.87
2018-05-02T15:54:25.512Z,983.86
2018-05-02T15:55:25.737Z,983.83
2018-05-02T15:58:10.082Z,983.91
2018-05-02T15:59:10.424Z,983.88
2018-05-02T16:00:10.459Z,983.87
2018-05-02T16:01:10.549Z,983.84
2018-05-02T16:02:19.369Z,983.80
2018-05-02T16:03:11.444Z,983.82
2018-05-02T16:04:20.041Z,983.79
2018-05-02T16:05:11.103Z,983.76
2018-05-02T16:06:11.742Z,983.76
2018-05-02T16:07:11.729Z,983.72
2018-05-02T16:08:11.807Z,983.73
2018-05-02T16:09:16.928Z,983.74
2018-05-02T16:11:53.173Z,983.76
2018-05-02T16:12:54.119Z,983.76
2018-05-02T16:13:57.802Z,983.72
2018-05-02T16:16:51.285Z,983.79
2018-05-02T16:17:54.250Z,983.74
2018-05-02T16:18:51.804Z,983.76
2018-05-02T16:19:52.973Z,983.74
2018-05-02T16:22:57.443Z,983.73
2018-05-02T16:23:55.622Z,983.70
2018-05-02T16:25:02.392Z,983.70
2018-05-02T16:25:48.176Z,983.69
2018-05-02T16:26:48.307Z,983.72
2018-05-02T16:27:48.736Z,983.70
2018-05-02T16:28:51.318Z,983.74
2018-05-02T16:29:48.817Z,983.73
2018-05-02T16:31:01.794Z,983.73
2018-05-02T16:31:51.477Z,983.75
2018-05-02T16:32:50.916Z,983.69
2018-05-02T16:33:49.588Z,983.69
2018-05-02T16:34:49.648Z,983.71
2018-05-02T16:35:50.583Z,983.72
2018-05-02T16:36:51.672Z,983.73
2018-05-02T16:37:50.248Z,983.72
2018-05-02T16:38:50.443Z,983.74
2018-05-02T16:39:50.481Z,983.78
2018-05-02T16:40:50.712Z,983.78
2018-05-02T16:41:51.925Z,983.75